Time;durP1;ratioP1;P1;durP2;ratioP2;P2;SDS_P1;SDS_P2;PMS_P1;PMS_P2;Temp;Humidity;BMP_temperature;BMP_pressure;BME280_temperature;BME280_humidity;BME280_pressure;Samples;Min_cycle;Max_cycle;Signal;HPM_P1;HPM_P2
2021/11/03 00:00:42;;;;;;;4.63;4.22;;;7.30;99.90;;;;;;5030202;28;20209;-53
2021/11/03 00:03:09;;;;;;;4.82;4.43;;;7.20;99.90;;;;;;5032140;28;20284;-54
2021/11/03 00:05:37;;;;;;;5.55;4.57;;;7.80;99.90;;;;;;5028312;28;20178;-54
2021/11/03 00:08:03;;;;;;;5.03;4.53;;;7.50;99.90;;;;;;5031105;28;20898;-54
2021/11/03 00:10:29;;;;;;;5.07;4.68;;;7.80;99.90;;;;;;5031104;28;20224;-54
2021/11/03 00:12:54;;;;;;;4.80;4.40;;;7.80;99.90;;;;;;5031539;28;20273;-54
2021/11/03 00:15:20;;;;;;;4.00;3.70;;;7.80;99.90;;;;;;5029445;28;20190;-54
2021/11/03 00:17:46;;;;;;;5.47;4.97;;;7.70;99.90;;;;;;5031098;28;20193;-54
2021/11/03 00:20:12;;;;;;;5.63;5.03;;;7.60;99.90;;;;;;5033190;28;20206;-54
2021/11/03 00:22:38;;;;;;;5.57;4.15;;;7.80;99.90;;;;;;5031307;28;20619;-53
2021/11/03 00:25:06;;;;;;;4.60;4.20;;;8.00;99.90;;;;;;5011803;28;20195;-53
2021/11/03 00:27:32;;;;;;;5.25;4.70;;;7.80;99.90;;;;;;5030954;28;20433;-54
2021/11/03 00:29:57;;;;;;;5.20;4.80;;;7.90;99.90;;;;;;5028206;28;20205;-53
2021/11/03 00:32:23;;;;;;;6.00;4.90;;;7.80;99.90;;;;;;5031418;28;20415;-54
2021/11/03 00:34:49;;;;;;;5.37;4.87;;;7.90;99.90;;;;;;5035305;28;20181;-54
2021/11/03 00:37:15;;;;;;;5.67;5.27;;;7.90;99.90;;;;;;5030406;28;20516;-54
2021/11/03 00:39:42;;;;;;;5.53;5.00;;;8.10;99.90;;;;;;5025343;28;20230;-53
2021/11/03 00:42:08;;;;;;;6.68;5.25;;;7.90;99.90;;;;;;5030849;28;20813;-54
2021/11/03 00:44:34;;;;;;;6.83;5.57;;;8.00;99.90;;;;;;5031023;28;20174;-54
2021/11/03 00:46:59;;;;;;;7.10;5.40;;;7.70;99.90;;;;;;5028435;28;20457;-53
2021/11/03 00:49:25;;;;;;;5.77;5.27;;;8.10;99.90;;;;;;5030101;28;20209;-53
2021/11/03 00:51:51;;;;;;;6.47;5.80;;;7.60;99.90;;;;;;5032326;28;20190;-53
2021/11/03 00:54:17;;;;;;;5.37;4.87;;;8.00;99.90;;;;;;5029960;28;20197;-53
2021/11/03 00:56:43;;;;;;;6.47;5.87;;;7.80;99.90;;;;;;5030423;28;20179;-53
2021/11/03 00:59:09;;;;;;;5.40;4.93;;;7.80;99.90;;;;;;5029672;28;20206;-54
2021/11/03 01:01:35;;;;;;;5.10;4.70;;;7.90;99.90;;;;;;5023974;28;20323;-54
2021/11/03 01:04:00;;;;;;;6.30;5.75;;;8.00;99.90;;;;;;5030577;28;20643;-53
2021/11/03 01:06:27;;;;;;;6.57;5.97;;;7.90;99.90;;;;;;5031462;28;20305;-53
2021/11/03 01:08:52;;;;;;;5.90;5.40;;;7.80;99.90;;;;;;5030526;28;20437;-53
2021/11/03 01:11:18;;;;;;;6.17;5.53;;;7.80;99.90;;;;;;5029577;28;20189;-53
2021/11/03 01:13:43;;;;;;;5.87;5.33;;;7.90;99.90;;;;;;5032953;28;20654;-53
2021/11/03 01:16:09;;;;;;;7.50;4.77;;;7.80;99.90;;;;;;5027408;28;20305;-53
2021/11/03 01:18:35;;;;;;;6.57;5.43;;;7.90;99.90;;;;;;5029248;28;20448;-52
2021/11/03 01:21:02;;;;;;;6.40;5.80;;;7.60;99.90;;;;;;5028864;28;20313;-53
2021/11/03 01:23:30;;;;;;;5.38;4.85;;;7.70;99.90;;;;;;5028980;28;20194;-54
2021/11/03 01:25:56;;;;;;;5.60;5.05;;;7.80;99.90;;;;;;5023177;28;20224;-53
2021/11/03 01:28:22;;;;;;;5.78;5.00;;;7.80;99.90;;;;;;5029759;28;20297;-53
2021/11/03 01:30:48;;;;;;;5.60;5.20;;;7.90;99.90;;;;;;5026530;28;20719;-53
2021/11/03 01:33:16;;;;;;;6.30;5.70;;;8.10;99.90;;;;;;5029728;28;20868;-53
2021/11/03 01:35:43;;;;;;;6.20;5.60;;;8.00;99.90;;;;;;5029894;28;20227;-53
2021/11/03 01:38:08;;;;;;;7.20;5.20;;;8.20;99.90;;;;;;5027870;28;20193;-53
2021/11/03 01:40:39;;;;;;;6.30;5.50;;;7.50;99.90;;;;;;5027526;28;20213;-53
2021/11/03 01:43:07;;;;;;;5.85;5.25;;;8.10;99.90;;;;;;5031943;28;20522;-53
2021/11/03 01:45:34;;;;;;;6.18;5.70;;;8.30;99.90;;;;;;5024175;28;20221;-53
2021/11/03 01:48:06;;;;;;;7.10;5.30;;;8.20;99.90;;;;;;5032895;28;20614;-54
2021/11/03 01:50:56;;;;;;;5.80;5.20;;;7.90;99.90;;;;;;5010055;28;20206;-53
2021/11/03 01:53:27;;;;;;;5.97;5.40;;;8.00;99.90;;;;;;5027842;28;20190;-53
2021/11/03 01:56:06;;;;;;;6.00;5.38;;;7.90;99.90;;;;;;5027463;28;20241;-53
2021/11/03 01:58:55;;;;;;;4.75;3.78;;;8.00;99.90;;;;;;5028533;28;20255;-54
2021/11/03 02:01:21;;;;;;;3.78;3.47;;;8.10;99.90;;;;;;5023661;28;20209;-54
2021/11/03 02:03:48;;;;;;;3.93;3.63;;;8.10;99.90;;;;;;5029036;28;20186;-54
2021/11/03 02:06:17;;;;;;;4.63;4.22;;;8.00;99.90;;;;;;5029561;28;20468;-54
2021/11/03 02:08:44;;;;;;;9.52;6.15;;;7.60;99.90;;;;;;5028678;28;20594;-53
2021/11/03 02:11:12;;;;;;;6.80;4.68;;;8.20;99.90;;;;;;5024622;28;20304;-53
2021/11/03 02:13:39;;;;;;;5.45;4.95;;;8.00;99.90;;;;;;5026410;28;20194;-53
2021/11/03 02:16:07;;;;;;;6.55;5.78;;;8.00;99.90;;;;;;5027130;28;20673;-53
2021/11/03 02:18:34;;;;;;;5.97;5.10;;;8.00;99.90;;;;;;5028888;28;20258;-54
2021/11/03 02:21:01;;;;;;;4.82;4.43;;;7.80;99.90;;;;;;5028613;28;20202;-54
2021/11/03 02:23:35;;;;;;;5.68;5.18;;;7.90;99.90;;;;;;5029564;28;20186;-54
2021/11/03 02:26:05;;;;;;;5.53;5.00;;;8.20;99.90;;;;;;5027934;28;20264;-54
2021/11/03 02:28:32;;;;;;;4.70;4.32;;;7.80;99.90;;;;;;5028625;28;20193;-53
2021/11/03 02:30:58;;;;;;;5.45;4.95;;;7.70;99.90;;;;;;5030334;28;20750;-54
2021/11/03 02:33:26;;;;;;;5.53;5.03;;;8.00;99.90;;;;;;5033558;28;20186;-53
2021/11/03 02:35:58;;;;;;;5.70;5.10;;;7.70;99.90;;;;;;5033301;28;20197;-53
2021/11/03 02:38:41;;;;;;;4.63;4.25;;;7.80;99.90;;;;;;5025889;28;20197;-53
2021/11/03 02:41:15;;;;;;;5.00;4.57;;;7.80;99.90;;;;;;5030629;28;20617;-53
2021/11/03 02:43:50;;;;;;;5.15;4.65;;;7.80;99.90;;;;;;5033135;28;20187;-54
2021/11/03 02:46:17;;;;;;;7.53;5.22;;;7.80;99.90;;;;;;5034222;28;20207;-53
2021/11/03 02:48:44;;;;;;;6.47;5.85;;;8.00;99.90;;;;;;5032840;28;20193;-53
2021/11/03 02:51:18;;;;;;;5.18;4.78;;;8.00;99.90;;;;;;5033239;28;20198;-53
2021/11/03 02:53:48;;;;;;;6.10;5.50;;;8.10;99.90;;;;;;5028372;28;20178;-53
2021/11/03 02:56:16;;;;;;;6.18;5.30;;;7.80;99.90;;;;;;5032897;28;20197;-53
2021/11/03 02:58:42;;;;;;;6.05;5.43;;;7.90;99.90;;;;;;5014432;28;20294;-53
2021/11/03 03:01:21;;;;;;;7.70;5.10;;;8.00;99.90;;;;;;5027338;28;20297;-53
2021/11/03 03:03:48;;;;;;;5.13;4.72;;;7.80;99.90;;;;;;5032354;28;20441;-53
2021/11/03 03:06:20;;;;;;;5.10;4.68;;;8.00;99.90;;;;;;5031825;28;20193;-53
2021/11/03 03:08:46;;;;;;;4.80;3.97;;;8.00;99.90;;;;;;5031234;28;20244;-53
2021/11/03 03:11:12;;;;;;;5.00;4.60;;;8.20;99.90;;;;;;5032888;28;20293;-53
2021/11/03 03:13:38;;;;;;;5.27;4.90;;;7.80;99.90;;;;;;5033733;28;20328;-53
2021/11/03 03:16:04;;;;;;;5.22;4.82;;;8.20;99.90;;;;;;5030866;28;20222;-53
2021/11/03 03:18:30;;;;;;;4.67;4.27;;;8.00;99.90;;;;;;5031569;28;20222;-53
2021/11/03 03:20:56;;;;;;;5.53;4.75;;;8.10;99.90;;;;;;5031228;28;20467;-53
2021/11/03 03:23:22;;;;;;;3.67;3.38;;;8.10;99.90;;;;;;5032390;28;20591;-53
2021/11/03 03:25:50;;;;;;;4.70;4.27;;;8.30;99.90;;;;;;5031883;28;20194;-53
2021/11/03 03:28:18;;;;;;;4.43;4.03;;;8.10;99.90;;;;;;5031970;28;20178;-53
2021/11/03 03:30:44;;;;;;;3.80;3.50;;;8.20;99.90;;;;;;5028843;28;20353;-53
2021/11/03 03:33:10;;;;;;;3.85;3.55;;;8.30;99.90;;;;;;5031895;28;20194;-53
2021/11/03 03:35:36;;;;;;;4.82;3.78;;;8.40;99.90;;;;;;5032323;28;20652;-53
2021/11/03 03:38:02;;;;;;;3.77;3.47;;;8.10;99.90;;;;;;5030469;28;20240;-53
2021/11/03 03:40:28;;;;;;;5.22;2.80;;;8.20;99.90;;;;;;5027816;28;20214;-54
2021/11/03 03:42:53;;;;;;;5.10;3.37;;;8.30;99.90;;;;;;5033109;28;20286;-53
2021/11/03 03:45:19;;;;;;;2.90;2.70;;;8.40;99.90;;;;;;5027412;28;20278;-53
2021/11/03 03:47:45;;;;;;;3.97;3.57;;;8.20;99.90;;;;;;5031842;28;20192;-53
2021/11/03 03:50:12;;;;;;;6.73;4.47;;;8.30;99.90;;;;;;5031529;28;20453;-53
2021/11/03 03:52:38;;;;;;;3.60;3.38;;;8.40;99.90;;;;;;5035741;28;20182;-53
2021/11/03 03:55:06;;;;;;;3.80;3.50;;;8.40;99.90;;;;;;5032066;28;20249;-53
2021/11/03 03:57:31;;;;;;;5.97;4.53;;;8.40;99.90;;;;;;5030788;28;20197;-53
2021/11/03 03:59:57;;;;;;;3.47;3.17;;;8.40;99.90;;;;;;5029983;28;20304;-53
2021/11/03 04:02:23;;;;;;;3.57;3.20;;;8.40;99.90;;;;;;5031204;28;20210;-53
2021/11/03 04:04:49;;;;;;;4.53;4.10;;;8.30;99.90;;;;;;5031727;28;20213;-53
2021/11/03 04:07:14;;;;;;;4.60;4.03;;;8.40;99.90;;;;;;5031410;28;20445;-52
2021/11/03 04:09:40;;;;;;;4.50;3.50;;;8.30;99.90;;;;;;5030555;28;20202;-53
2021/11/03 04:12:06;;;;;;;3.97;3.67;;;8.40;99.90;;;;;;5031074;28;20218;-52
2021/11/03 04:14:32;;;;;;;5.03;4.50;;;8.30;99.90;;;;;;5030966;28;20733;-52
2021/11/03 04:16:57;;;;;;;5.23;4.73;;;8.20;99.90;;;;;;5030427;28;20289;-53
2021/11/03 04:19:23;;;;;;;5.07;4.57;;;8.00;99.90;;;;;;5014552;28;20277;-53
2021/11/03 04:21:49;;;;;;;4.50;4.10;;;8.00;99.90;;;;;;5030616;28;20677;-52
2021/11/03 04:24:15;;;;;;;4.87;4.47;;;8.00;99.90;;;;;;5028890;28;20224;-52
2021/11/03 04:26:43;;;;;;;5.20;4.70;;;8.00;99.90;;;;;;5028204;28;20572;-53
2021/11/03 04:29:09;;;;;;;4.32;4.03;;;8.20;99.90;;;;;;5030723;28;20232;-53
2021/11/03 04:31:35;;;;;;;4.50;4.10;;;8.00;99.90;;;;;;5029970;28;20175;-53
2021/11/03 04:34:01;;;;;;;4.90;4.40;;;8.10;99.90;;;;;;5024105;28;20608;-53
2021/11/03 04:36:27;;;;;;;5.55;4.32;;;8.30;99.90;;;;;;5031228;28;20193;-52
2021/11/03 04:38:55;;;;;;;4.65;4.25;;;7.60;99.90;;;;;;5030224;28;20196;-53
2021/11/03 04:41:21;;;;;;;5.65;4.80;;;8.20;99.90;;;;;;5012694;28;20650;-52
2021/11/03 04:43:47;;;;;;;4.77;4.13;;;8.10;99.90;;;;;;5031063;28;20265;-52
2021/11/03 04:46:15;;;;;;;4.85;4.45;;;8.00;99.90;;;;;;5019212;28;20670;-53
2021/11/03 04:48:42;;;;;;;4.82;4.43;;;7.90;99.90;;;;;;5029569;28;20314;-53
2021/11/03 04:51:08;;;;;;;8.07;4.30;;;8.20;99.90;;;;;;5034567;28;20210;-53
2021/11/03 04:53:34;;;;;;;4.70;4.37;;;8.10;99.90;;;;;;5025725;28;20183;-53
2021/11/03 04:56:03;;;;;;;6.65;4.10;;;8.00;99.90;;;;;;5030589;28;20186;-53
2021/11/03 04:58:28;;;;;;;5.05;4.55;;;7.90;99.90;;;;;;5026613;28;20252;-53
2021/11/03 05:00:54;;;;;;;5.00;4.60;;;8.20;99.90;;;;;;5026709;28;20606;-52
2021/11/03 05:03:20;;;;;;;4.70;4.18;;;8.00;99.90;;;;;;5027464;28;20464;-52
2021/11/03 05:05:47;;;;;;;5.40;4.10;;;8.00;99.90;;;;;;5030323;28;20240;-53
2021/11/03 05:08:14;;;;;;;4.20;3.80;;;7.90;99.90;;;;;;5026645;28;20183;-52
2021/11/03 05:10:40;;;;;;;5.15;4.65;;;7.90;99.90;;;;;;5025861;28;20579;-52
2021/11/03 05:13:06;;;;;;;5.00;4.60;;;7.80;99.90;;;;;;5021858;28;20201;-52
2021/11/03 05:15:32;;;;;;;6.18;4.20;;;8.20;99.90;;;;;;5027532;28;20520;-52
2021/11/03 05:17:58;;;;;;;4.53;4.13;;;8.00;99.90;;;;;;5024205;28;20202;-52
2021/11/03 05:20:23;;;;;;;4.95;4.50;;;8.20;99.90;;;;;;5022790;28;20549;-52
2021/11/03 05:22:52;;;;;;;5.40;4.90;;;8.10;99.90;;;;;;5022556;28;20648;-51
2021/11/03 05:25:22;;;;;;;6.15;5.07;;;8.10;99.90;;;;;;5024489;28;20210;-52
2021/11/03 05:27:49;;;;;;;5.20;4.80;;;8.00;99.90;;;;;;5023111;28;20576;-52
2021/11/03 05:30:15;;;;;;;6.95;6.25;;;8.10;99.90;;;;;;5021552;28;20198;-52
2021/11/03 05:32:41;;;;;;;5.10;4.65;;;8.30;99.90;;;;;;5021198;28;20187;-52
2021/11/03 05:35:09;;;;;;;6.18;4.03;;;8.20;99.90;;;;;;5025556;28;20558;-52
2021/11/03 05:37:35;;;;;;;4.93;4.53;;;8.20;99.90;;;;;;5012993;28;20202;-53
2021/11/03 05:40:03;;;;;;;5.38;4.55;;;8.60;99.90;;;;;;5021216;28;20580;-53
2021/11/03 05:42:29;;;;;;;4.13;3.83;;;8.60;99.90;;;;;;5023607;28;20304;-53
2021/11/03 05:44:54;;;;;;;5.47;4.97;;;8.50;99.90;;;;;;5026011;28;20286;-52
2021/11/03 05:47:23;;;;;;;4.93;4.53;;;8.30;99.90;;;;;;5026859;28;20206;-54
2021/11/03 05:49:50;;;;;;;5.22;4.43;;;8.40;99.90;;;;;;5023517;28;20207;-52
2021/11/03 05:52:15;;;;;;;4.38;3.97;;;8.40;99.90;;;;;;5027808;28;20190;-52
2021/11/03 05:54:41;;;;;;;4.60;4.23;;;8.50;99.90;;;;;;5021216;28;20186;-52
2021/11/03 05:57:08;;;;;;;5.63;4.30;;;8.50;99.90;;;;;;5022392;28;20445;-52
2021/11/03 05:59:35;;;;;;;5.13;4.55;;;8.60;99.90;;;;;;5017773;28;20596;-53
2021/11/03 06:02:01;;;;;;;4.95;4.55;;;8.40;99.90;;;;;;5025742;28;20245;-52
2021/11/03 06:04:27;;;;;;;6.60;5.73;;;8.50;99.90;;;;;;5027652;28;20281;-53
2021/11/03 06:06:53;;;;;;;5.47;4.80;;;8.80;99.90;;;;;;5024817;28;21186;-53
2021/11/03 06:09:18;;;;;;;5.10;4.70;;;8.60;99.90;;;;;;5020560;28;20834;-53
2021/11/03 06:11:44;;;;;;;5.10;4.30;;;8.60;99.90;;;;;;5020512;28;20445;-53
2021/11/03 06:14:11;;;;;;;6.10;4.68;;;8.60;99.90;;;;;;5017586;28;20267;-54
2021/11/03 06:16:37;;;;;;;4.80;4.40;;;8.70;99.90;;;;;;5027055;28;20201;-54
2021/11/03 06:19:04;;;;;;;5.18;4.47;;;8.60;99.90;;;;;;5024193;28;20186;-53
2021/11/03 06:21:32;;;;;;;4.93;4.43;;;8.50;99.90;;;;;;5015777;28;20259;-54
2021/11/03 06:23:58;;;;;;;4.38;3.97;;;8.90;99.90;;;;;;5014253;28;20288;-54
2021/11/03 06:26:24;;;;;;;10.77;5.07;;;8.10;99.90;;;;;;5025320;28;20269;-53
2021/11/03 06:28:50;;;;;;;5.37;4.87;;;8.80;99.90;;;;;;5028673;28;20273;-53
2021/11/03 06:31:16;;;;;;;5.95;4.57;;;8.50;99.90;;;;;;5023000;28;20692;-54
2021/11/03 06:33:42;;;;;;;5.53;4.40;;;8.30;99.90;;;;;;5019755;28;20676;-54
2021/11/03 06:36:09;;;;;;;5.45;4.95;;;8.40;99.90;;;;;;5025272;28;20407;-53
2021/11/03 06:38:35;;;;;;;6.20;4.00;;;8.50;99.90;;;;;;5024018;28;20603;-54
2021/11/03 06:41:01;;;;;;;4.30;4.00;;;8.60;99.90;;;;;;5026180;28;20210;-54
2021/11/03 06:43:27;;;;;;;4.17;3.87;;;8.70;99.90;;;;;;5022256;28;20221;-53
2021/11/03 06:45:53;;;;;;;4.68;4.10;;;8.70;99.90;;;;;;5022880;28;20943;-54
2021/11/03 06:48:19;;;;;;;4.93;4.43;;;8.70;99.90;;;;;;5023954;28;20186;-54
2021/11/03 06:50:45;;;;;;;4.40;4.00;;;9.00;99.90;;;;;;5027291;28;20558;-54
2021/11/03 06:53:12;;;;;;;5.57;3.90;;;9.10;99.90;;;;;;5024460;28;20648;-53
2021/11/03 06:55:38;;;;;;;4.93;3.80;;;9.10;99.90;;;;;;5025008;28;20274;-54
2021/11/03 06:58:05;;;;;;;5.13;4.47;;;9.00;99.90;;;;;;5027368;28;20191;-54
2021/11/03 07:00:34;;;;;;;5.50;4.63;;;9.30;99.90;;;;;;5025000;28;20226;-54
2021/11/03 07:03:00;;;;;;;4.88;4.43;;;9.40;99.90;;;;;;5026439;28;20675;-54
2021/11/03 07:05:28;;;;;;;4.70;4.22;;;9.00;99.90;;;;;;5023288;28;20189;-52
2021/11/03 07:07:54;;;;;;;4.28;3.88;;;9.10;99.90;;;;;;5026764;28;20187;-53
2021/11/03 07:10:23;;;;;;;4.67;3.97;;;9.00;99.90;;;;;;5023601;28;20694;-55
2021/11/03 07:12:50;;;;;;;3.70;3.40;;;9.00;99.90;;;;;;5027771;28;20628;-55
2021/11/03 07:15:16;;;;;;;4.10;3.80;;;9.00;99.90;;;;;;5018613;28;20632;-55
2021/11/03 07:17:43;;;;;;;5.03;3.92;;;9.30;99.90;;;;;;5031676;28;20284;-51
2021/11/03 07:20:09;;;;;;;3.70;3.40;;;9.40;99.90;;;;;;5032388;28;20202;-53
2021/11/03 07:22:34;;;;;;;3.90;3.58;;;9.10;99.90;;;;;;5024868;28;20226;-52
2021/11/03 07:25:00;;;;;;;5.43;3.63;;;9.20;99.90;;;;;;5028038;28;20222;-52
2021/11/03 07:27:26;;;;;;;4.93;4.20;;;9.20;99.90;;;;;;5028975;28;20505;-52
2021/11/03 07:29:51;;;;;;;4.90;3.87;;;9.10;99.90;;;;;;5024194;28;20256;-52
2021/11/03 07:32:17;;;;;;;5.83;4.40;;;9.50;99.90;;;;;;5032981;28;20314;-53
2021/11/03 07:34:43;;;;;;;4.88;4.00;;;9.30;99.90;;;;;;5033244;28;20190;-53
2021/11/03 07:37:09;;;;;;;4.20;3.80;;;9.30;99.90;;;;;;5023282;28;20605;-53
2021/11/03 07:39:35;;;;;;;4.18;3.78;;;9.20;99.90;;;;;;5033541;28;20292;-53
2021/11/03 07:42:01;;;;;;;4.53;4.13;;;9.30;99.90;;;;;;5031279;28;20389;-53
2021/11/03 07:44:27;;;;;;;4.43;3.75;;;9.30;99.90;;;;;;5032903;28;20178;-53
2021/11/03 07:46:53;;;;;;;7.95;3.78;;;9.30;99.90;;;;;;5032209;28;20182;-54
2021/11/03 07:49:19;;;;;;;4.87;3.90;;;9.70;99.90;;;;;;5032285;28;20656;-53
2021/11/03 07:51:44;;;;;;;4.13;3.73;;;9.40;99.90;;;;;;5029461;28;20281;-53
2021/11/03 07:54:10;;;;;;;5.03;4.53;;;9.60;99.90;;;;;;5023872;28;20190;-53
2021/11/03 07:56:38;;;;;;;4.60;4.03;;;9.80;99.90;;;;;;5023030;28;20675;-53
2021/11/03 07:59:05;;;;;;;4.47;4.00;;;9.90;99.90;;;;;;5027802;28;20179;-53
2021/11/03 08:01:31;;;;;;;3.83;3.38;;;9.80;99.90;;;;;;5012155;28;20190;-53
2021/11/03 08:03:56;;;;;;;4.07;3.70;;;9.60;99.90;;;;;;5026174;28;20536;-53
2021/11/03 08:06:22;;;;;;;4.00;3.60;;;9.70;99.90;;;;;;5029343;28;20187;-53
2021/11/03 08:08:57;;;;;;;4.53;4.13;;;9.70;99.90;;;;;;5029432;28;20179;-53
2021/11/03 08:11:27;;;;;;;3.80;3.40;;;9.60;99.90;;;;;;5030077;28;20553;-53
2021/11/03 08:13:53;;;;;;;4.30;3.90;;;9.30;99.90;;;;;;5025688;28;20186;-52
2021/11/03 08:16:19;;;;;;;5.65;5.15;;;9.90;99.90;;;;;;5027129;28;20666;-53
2021/11/03 08:18:46;;;;;;;5.20;4.70;;;9.90;99.90;;;;;;5030426;28;20187;-52
2021/11/03 08:21:14;;;;;;;4.38;3.97;;;9.70;99.90;;;;;;5011335;28;20289;-60
2021/11/03 08:23:40;;;;;;;3.72;3.30;;;9.80;99.90;;;;;;5024766;28;20349;-58
2021/11/03 08:26:07;;;;;;;4.68;3.85;;;9.70;99.90;;;;;;5029069;28;20272;-58
2021/11/03 08:28:34;;;;;;;4.13;3.70;;;9.80;99.90;;;;;;5022055;28;20179;-58
2021/11/03 08:31:00;;;;;;;3.92;3.63;;;10.30;99.90;;;;;;5028681;28;20202;-57
2021/11/03 08:33:33;;;;;;;4.07;3.67;;;10.00;99.90;;;;;;5027203;28;20187;-52
2021/11/03 08:35:59;;;;;;;4.63;4.22;;;10.00;99.90;;;;;;5024520;28;20542;-52
2021/11/03 08:38:26;;;;;;;5.05;4.65;;;10.20;99.90;;;;;;5028011;28;20434;-52
2021/11/03 08:40:53;;;;;;;5.18;4.68;;;10.20;99.90;;;;;;5026171;28;20202;-53
2021/11/03 08:43:23;;;;;;;4.35;3.40;;;10.20;99.90;;;;;;5029825;28;20583;-53
2021/11/03 08:45:53;;;;;;;6.20;3.88;;;10.10;99.90;;;;;;5025349;28;20175;-51
2021/11/03 08:48:21;;;;;;;3.40;3.10;;;10.30;99.90;;;;;;5029485;28;20222;-51
2021/11/03 08:50:47;;;;;;;3.78;3.47;;;9.80;99.90;;;;;;5024654;28;20660;-53
2021/11/03 08:53:15;;;;;;;5.20;4.70;;;9.40;99.90;;;;;;5027977;28;20555;-52
2021/11/03 08:55:44;;;;;;;5.57;4.35;;;10.10;99.90;;;;;;5027800;28;20194;-53
2021/11/03 08:58:12;;;;;;;4.32;3.40;;;10.20;99.90;;;;;;5022377;28;20240;-53
2021/11/03 09:00:39;;;;;;;4.30;3.90;;;10.10;99.90;;;;;;5023787;28;20206;-53
2021/11/03 09:03:06;;;;;;;4.80;3.58;;;10.40;99.90;;;;;;5024687;28;20240;-54
2021/11/03 09:05:32;;;;;;;4.97;3.50;;;10.20;99.90;;;;;;5029209;28;20197;-54
2021/11/03 09:08:00;;;;;;;4.80;4.40;;;10.30;99.90;;;;;;5021052;28;20550;-53
2021/11/03 09:10:28;;;;;;;4.07;3.65;;;10.20;99.90;;;;;;5029125;28;20555;-53
2021/11/03 09:12:53;;;;;;;3.70;3.35;;;10.30;99.90;;;;;;5026738;28;20218;-53
2021/11/03 09:15:21;;;;;;;4.20;3.70;;;10.50;99.90;;;;;;5024731;28;20221;-53
2021/11/03 09:17:47;;;;;;;3.60;3.30;;;10.30;99.90;;;;;;5027018;28;20191;-54
2021/11/03 09:20:14;;;;;;;5.20;3.70;;;10.70;99.90;;;;;;5030619;28;20237;-55
2021/11/03 09:22:41;;;;;;;4.88;3.85;;;10.80;99.90;;;;;;5026742;28;20499;-54
2021/11/03 09:25:13;;;;;;;4.22;3.90;;;11.20;99.90;;;;;;5024632;28;20261;-53
2021/11/03 09:27:39;;;;;;;4.70;2.90;;;11.40;99.90;;;;;;5025224;28;20194;-53
2021/11/03 09:30:07;;;;;;;3.10;2.90;;;11.70;99.90;;;;;;5025513;28;20293;-53
2021/11/03 09:32:34;;;;;;;3.25;3.05;;;11.70;99.90;;;;;;5028729;28;20191;-51
2021/11/03 09:35:01;;;;;;;3.25;2.67;;;11.60;99.90;;;;;;5029176;28;20254;-53
2021/11/03 09:37:28;;;;;;;2.70;2.50;;;11.50;99.90;;;;;;5023598;28;20569;-53
2021/11/03 09:39:55;;;;;;;8.98;7.78;;;11.90;99.90;;;;;;5026323;28;20212;-54
2021/11/03 09:42:23;;;;;;;3.15;2.85;;;12.00;99.90;;;;;;5026789;28;20232;-53
2021/11/03 09:44:52;;;;;;;3.95;2.70;;;11.80;99.90;;;;;;5024747;28;20670;-54
2021/11/03 09:47:29;;;;;;;3.45;3.10;;;12.00;99.90;;;;;;5025283;28;20191;-54
2021/11/03 09:49:58;;;;;;;3.30;2.22;;;11.90;99.90;;;;;;5024682;28;20658;-53
2021/11/03 09:52:33;;;;;;;5.38;3.05;;;11.90;99.90;;;;;;5024565;28;20598;-53
2021/11/03 09:55:18;;;;;;;19.70;14.98;;;11.70;99.90;;;;;;5028463;28;20188;-53
2021/11/03 09:57:48;;;;;;;4.20;3.90;;;12.00;99.90;;;;;;5022120;28;20256;-53
2021/11/03 10:00:27;;;;;;;3.03;2.58;;;12.10;99.90;;;;;;5024321;28;20209;-52
2021/11/03 10:02:59;;;;;;;3.38;2.67;;;11.50;99.90;;;;;;5027946;28;20222;-52
2021/11/03 10:06:09;;;;;;;3.00;2.80;;;12.20;99.90;;;;;;5017289;28;20195;-53
2021/11/03 10:08:40;;;;;;;2.50;2.30;;;12.00;99.90;;;;;;4998647;28;20205;-53
2021/11/03 10:11:16;;;;;;;4.32;3.33;;;11.90;99.90;;;;;;5025985;28;20713;-53
2021/11/03 10:13:44;;;;;;;5.15;3.05;;;11.80;99.90;;;;;;5026688;28;20522;-53
2021/11/03 10:16:15;;;;;;;3.40;3.10;;;11.70;99.90;;;;;;5027372;28;20657;-51
2021/11/03 10:18:56;;;;;;;2.83;2.60;;;11.70;99.90;;;;;;5028018;28;20275;-53
2021/11/03 10:21:27;;;;;;;2.60;2.40;;;12.00;99.90;;;;;;5028645;28;20190;-53
2021/11/03 10:23:58;;;;;;;5.35;2.55;;;11.70;99.90;;;;;;5022866;28;20339;-53
2021/11/03 10:26:28;;;;;;;2.65;2.45;;;11.80;99.90;;;;;;5022286;28;20184;-53
2021/11/03 10:29:11;;;;;;;3.45;3.15;;;11.80;99.90;;;;;;5024490;28;20181;-53
2021/11/03 10:31:45;;;;;;;3.65;3.35;;;11.30;99.90;;;;;;5025729;28;20234;-52
2021/11/03 10:34:34;;;;;;;2.83;2.42;;;11.80;99.90;;;;;;5026215;28;20213;-51
2021/11/03 10:37:33;;;;;;;2.90;2.58;;;11.80;99.90;;;;;;5011668;28;20625;-52
2021/11/03 10:40:05;;;;;;;2.50;2.30;;;11.80;99.90;;;;;;5016655;28;20206;-53
2021/11/03 10:42:34;;;;;;;2.80;2.60;;;12.00;99.90;;;;;;5011316;28;20285;-53
2021/11/03 10:45:21;;;;;;;7.03;6.32;;;12.10;99.90;;;;;;5023887;28;20182;-53
2021/11/03 10:47:51;;;;;;;2.90;2.55;;;12.10;99.90;;;;;;5021720;28;20206;-53
2021/11/03 10:50:28;;;;;;;2.97;2.63;;;12.30;99.90;;;;;;5029690;28;20247;-52
2021/11/03 10:52:58;;;;;;;2.67;2.47;;;12.50;99.90;;;;;;5027994;28;20194;-53
2021/11/03 10:55:39;;;;;;;2.65;2.45;;;12.60;99.20;;;;;;5024152;28;20192;-54
2021/11/03 10:58:10;;;;;;;3.15;2.50;;;12.80;98.90;;;;;;5031085;28;20194;-51
2021/11/03 11:00:39;;;;;;;2.97;2.60;;;12.30;98.60;;;;;;5027775;28;20205;-53
2021/11/03 11:03:13;;;;;;;4.10;2.70;;;12.60;98.60;;;;;;5025625;28;20264;-52
2021/11/03 11:05:43;;;;;;;2.90;2.70;;;12.50;99.50;;;;;;5025821;28;20193;-52
2021/11/03 11:08:19;;;;;;;3.47;2.17;;;12.40;99.60;;;;;;5014656;28;20185;-52
2021/11/03 11:10:59;;;;;;;4.13;2.47;;;12.40;99.60;;;;;;5014562;28;20225;-53
2021/11/03 11:13:46;;;;;;;2.42;2.10;;;12.50;98.70;;;;;;5015544;28;20193;-52
2021/11/03 11:16:12;;;;;;;2.40;2.20;;;12.60;98.50;;;;;;4993016;28;20197;-52
2021/11/03 11:18:50;;;;;;;2.50;2.30;;;12.30;98.40;;;;;;5023598;28;20199;-52
2021/11/03 11:21:20;;;;;;;2.80;2.55;;;12.30;99.00;;;;;;5029020;28;20185;-53
2021/11/03 11:23:56;;;;;;;3.92;3.33;;;12.40;98.80;;;;;;5030188;28;20200;-53
2021/11/03 11:26:37;;;;;;;7.43;3.38;;;12.30;99.00;;;;;;5026381;28;20180;-52
2021/11/03 11:29:21;;;;;;;3.72;2.70;;;12.20;99.30;;;;;;5023761;28;20184;-53
2021/11/03 11:31:59;;;;;;;3.20;2.58;;;12.40;99.00;;;;;;5021016;28;20971;-52
2021/11/03 11:35:02;;;;;;;2.95;2.33;;;12.40;98.50;;;;;;5026670;28;20199;-52
2021/11/03 11:37:32;;;;;;;4.03;2.80;;;12.30;98.50;;;;;;5032521;28;20619;-53
2021/11/03 11:40:21;;;;;;;4.88;3.30;;;12.20;99.20;;;;;;5029231;28;20205;-52
2021/11/03 11:43:01;;;;;;;4.80;2.67;;;12.70;99.70;;;;;;5025730;28;20712;-53
2021/11/03 11:45:34;;;;;;;2.65;2.40;;;12.80;99.80;;;;;;5020754;28;20193;-53
2021/11/03 11:48:10;;;;;;;3.90;2.45;;;12.80;99.90;;;;;;5028540;28;20336;-52
2021/11/03 11:50:48;;;;;;;2.42;2.17;;;12.70;99.90;;;;;;5030980;28;20209;-53
2021/11/03 11:53:28;;;;;;;3.08;1.95;;;12.50;99.90;;;;;;5026653;28;20187;-52
2021/11/03 11:56:08;;;;;;;2.90;1.90;;;12.40;99.50;;;;;;5037139;28;20203;-53
2021/11/03 11:58:39;;;;;;;3.85;3.47;;;12.40;99.40;;;;;;5026881;28;20386;-51
2021/11/03 12:01:12;;;;;;;3.78;2.30;;;12.60;99.80;;;;;;5027323;28;20242;-53
2021/11/03 12:03:46;;;;;;;2.05;1.75;;;12.60;99.60;;;;;;5030710;28;20308;-52
2021/11/03 12:06:12;;;;;;;2.20;2.00;;;12.40;98.40;;;;;;5031489;28;20742;-54
2021/11/03 12:09:17;;;;;;;1.73;1.63;;;12.30;98.80;;;;;;5026799;28;20265;-56
2021/11/03 12:11:55;;;;;;;3.58;1.95;;;12.80;99.00;;;;;;5033246;28;20444;-52
2021/11/03 12:14:49;;;;;;;2.50;1.60;;;12.40;99.40;;;;;;5032553;28;20218;-53
2021/11/03 12:17:37;;;;;;;2.45;1.50;;;12.30;99.70;;;;;;5031901;28;20237;-53
2021/11/03 12:20:25;;;;;;;2.25;2.05;;;12.10;98.80;;;;;;5028915;28;20304;-53
2021/11/03 12:23:32;;;;;;;2.60;2.08;;;12.30;99.40;;;;;;5031843;28;20630;-53
2021/11/03 12:26:22;;;;;;;1.33;1.23;;;12.40;99.80;;;;;;5027033;28;20207;-54
2021/11/03 12:28:57;;;;;;;2.25;1.88;;;12.40;99.10;;;;;;5022745;28;20196;-54
2021/11/03 12:31:23;;;;;;;2.97;2.08;;;12.40;99.20;;;;;;5030597;28;20532;-55
2021/11/03 12:34:04;;;;;;;4.43;1.60;;;12.40;99.20;;;;;;5030165;28;20197;-54
2021/11/03 12:36:51;;;;;;;2.42;1.98;;;12.60;99.30;;;;;;5027819;28;20221;-53
2021/11/03 12:39:28;;;;;;;3.08;1.85;;;12.60;99.20;;;;;;5019014;28;20222;-52
2021/11/03 12:41:57;;;;;;;4.65;3.13;;;12.50;98.90;;;;;;5019789;28;20225;-53
2021/11/03 12:44:47;;;;;;;2.08;1.73;;;12.80;99.50;;;;;;5028680;28;20185;-54
2021/11/03 12:47:34;;;;;;;3.00;1.35;;;12.80;99.30;;;;;;5022962;28;20623;-54
2021/11/03 12:50:08;;;;;;;1.70;1.40;;;12.60;99.90;;;;;;5024632;28;20203;-54
2021/11/03 12:53:16;;;;;;;5.75;2.28;;;12.40;99.90;;;;;;5011337;28;20744;-54
2021/11/03 12:55:57;;;;;;;2.17;1.98;;;12.60;99.90;;;;;;5024827;28;20211;-53
2021/11/03 12:58:29;;;;;;;2.45;1.80;;;12.50;99.90;;;;;;5029793;28;20199;-54
2021/11/03 13:00:55;;;;;;;2.45;1.75;;;12.70;99.90;;;;;;5022703;28;20212;-55
2021/11/03 13:03:25;;;;;;;2.40;2.20;;;12.70;99.90;;;;;;5034360;28;20235;-54
2021/11/03 13:05:51;;;;;;;2.45;1.80;;;12.60;99.90;;;;;;5026541;28;20216;-52